KMJX/MJX METAR and TAF weather

Enter ICAO airport designator
Station Type Date Time Source
KMJX METAR 2021/09/25 12:56 UTC NOAA

KMJX 251256Z AUTO 02003KT 10SM CLR 16/12 A3007 RMK AO2 SLP184 T01560117


Station Type Date Time Source
KMJX Decoded METAR 2021/09/25 12:56 UTC NOAA

Station name not available
Sep 25, 2021 - 08:56 AM EDT / 2021.09.25 1256 UTC
Wind: from the NNE (020 degrees) at 3 MPH (3 KT):0
Visibility: 10 mile(s):0
Sky conditions: clear
Temperature: 60.1 F (15.6 C)
Dew Point: 53.1 F (11.7 C)
Relative Humidity: 77%
Pressure (altimeter): 30.07 in. Hg (1018 hPa)
ob: KMJX 251256Z AUTO 02003KT 10SM CLR 16/12 A3007 RMK AO2 SLP184 T01560117
cycle: 13

Station Type Date Time Source
KMJX TAF UTC NOAA

Error!

Example: see airport list